Time;durP1;ratioP1;P1;durP2;ratioP2;P2;SDS_P1;SDS_P2;PMS_P1;PMS_P2;Temp;Humidity;BMP_temperature;BMP_pressure;BME280_temperature;BME280_humidity;BME280_pressure;Samples;Min_cycle;Max_cycle;Signal;HPM_P1;HPM_P2
2022/09/01 00:02:10;;;;;;;10.53;5.70;;;;;;;;;;5089877;28;20200;-82
2022/09/01 00:04:43;;;;;;;10.27;6.33;;;;;;;;;;5091059;28;20204;-81
2022/09/01 00:07:12;;;;;;;7.00;5.93;;;;;;;;;;5090291;28;20241;-82
2022/09/01 00:09:39;;;;;;;15.50;6.93;;;;;;;;;;5097806;28;20199;-82
2022/09/01 00:12:08;;;;;;;9.13;5.53;;;;;;;;;;5097541;28;20204;-82
2022/09/01 00:14:40;;;;;;;9.77;5.73;;;;;;;;;;5090343;28;20200;-83
2022/09/01 00:17:09;;;;;;;12.80;5.80;;;;;;;;;;5090367;28;20215;-82
2022/09/01 00:19:38;;;;;;;7.03;5.83;;;;;;;;;;5090510;28;20223;-82
2022/09/01 00:22:06;;;;;;;14.70;7.23;;;;;;;;;;5090566;28;20205;-82
2022/09/01 00:24:33;;;;;;;6.27;5.13;;;;;;;;;;5090238;28;20741;-82
2022/09/01 00:26:59;;;;;;;8.03;5.80;;;;;;;;;;5090195;28;20227;-82
2022/09/01 00:29:26;;;;;;;10.67;7.30;;;;;;;;;;5090382;28;20620;-82
2022/09/01 00:31:53;;;;;;;5.93;5.33;;;;;;;;;;5090577;28;20707;-83
2022/09/01 00:34:22;;;;;;;9.90;6.77;;;;;;;;;;5090123;28;20589;-82
2022/09/01 00:36:50;;;;;;;9.37;6.30;;;;;;;;;;5090428;28;20620;-82
2022/09/01 00:39:17;;;;;;;10.43;6.43;;;;;;;;;;5090231;28;20216;-83
2022/09/01 00:41:44;;;;;;;9.47;6.80;;;;;;;;;;5090136;28;20204;-81
2022/09/01 00:44:13;;;;;;;10.87;6.37;;;;;;;;;;5090128;28;20224;-82
2022/09/01 00:46:41;;;;;;;11.80;6.63;;;;;;;;;;5089444;28;20207;-82
2022/09/01 00:49:11;;;;;;;7.87;6.30;;;;;;;;;;5090254;28;20207;-82
2022/09/01 00:51:39;;;;;;;7.60;5.97;;;;;;;;;;5089998;28;20196;-82
2022/09/01 00:54:09;;;;;;;7.33;6.23;;;;;;;;;;5090526;28;20197;-82
2022/09/01 00:56:39;;;;;;;8.00;6.03;;;;;;;;;;5089840;28;20208;-82
2022/09/01 00:59:06;;;;;;;7.40;6.77;;;;;;;;;;5089715;28;20196;-82
2022/09/01 01:01:35;;;;;;;11.07;7.03;;;;;;;;;;5090131;28;20717;-82
2022/09/01 01:04:02;;;;;;;10.47;7.43;;;;;;;;;;5089778;28;20220;-81
2022/09/01 01:06:31;;;;;;;11.23;6.53;;;;;;;;;;5090112;28;20204;-82
2022/09/01 01:08:59;;;;;;;10.43;6.67;;;;;;;;;;5089790;28;20266;-82
2022/09/01 01:11:31;;;;;;;9.00;6.00;;;;;;;;;;5089624;28;20200;-82
2022/09/01 01:13:59;;;;;;;6.33;5.73;;;;;;;;;;5093409;28;20200;-82
2022/09/01 01:16:28;;;;;;;7.07;6.37;;;;;;;;;;5093804;28;20200;-82
2022/09/01 01:18:55;;;;;;;12.23;6.67;;;;;;;;;;5093748;28;20200;-82
2022/09/01 01:24:23;;;;;;;8.13;6.83;;;;;;;;;;5093293;28;20261;-82
2022/09/01 01:26:50;;;;;;;6.90;5.77;;;;;;;;;;5092986;28;20262;-83
2022/09/01 01:29:18;;;;;;;12.33;6.30;;;;;;;;;;5093431;28;20228;-82
2022/09/01 01:31:46;;;;;;;7.40;5.67;;;;;;;;;;5093632;28;20204;-82
2022/09/01 01:34:13;;;;;;;7.87;5.83;;;;;;;;;;5093245;28;20682;-82
2022/09/01 01:36:40;;;;;;;7.27;6.23;;;;;;;;;;5092945;28;20203;-82
2022/09/01 01:39:09;;;;;;;10.30;6.60;;;;;;;;;;5093246;28;20696;-82
2022/09/01 01:41:41;;;;;;;9.63;5.93;;;;;;;;;;5092942;28;20192;-82
2022/09/01 01:44:08;;;;;;;12.03;5.80;;;;;;;;;;5093245;28;20235;-82
2022/09/01 01:46:41;;;;;;;7.77;6.00;;;;;;;;;;5092595;28;20732;-82
2022/09/01 01:49:08;;;;;;;8.50;5.40;;;;;;;;;;5092653;28;20200;-82
2022/09/01 01:51:35;;;;;;;9.80;6.50;;;;;;;;;;5092976;28;20203;-82
2022/09/01 01:54:04;;;;;;;7.10;5.70;;;;;;;;;;5093199;28;20189;-82
2022/09/01 01:56:36;;;;;;;7.10;6.00;;;;;;;;;;5092988;28;20232;-82
2022/09/01 01:59:06;;;;;;;7.83;6.00;;;;;;;;;;5092613;28;20204;-81
2022/09/01 02:01:32;;;;;;;11.40;6.17;;;;;;;;;;5092696;28;20197;-82
2022/09/01 02:04:03;;;;;;;7.60;6.13;;;;;;;;;;5092436;28;20648;-81
2022/09/01 02:06:33;;;;;;;12.17;7.40;;;;;;;;;;5092608;28;20685;-81
2022/09/01 02:09:02;;;;;;;8.40;6.40;;;;;;;;;;5092597;28;20200;-82
2022/09/01 02:11:32;;;;;;;9.93;7.03;;;;;;;;;;5092209;28;20293;-82
2022/09/01 02:13:59;;;;;;;9.60;6.37;;;;;;;;;;5092380;28;20207;-82
2022/09/01 02:16:32;;;;;;;8.10;6.37;;;;;;;;;;5092174;28;20204;-82
2022/09/01 02:18:59;;;;;;;7.23;6.50;;;;;;;;;;5092571;28;20591;-82
2022/09/01 02:21:26;;;;;;;7.50;6.60;;;;;;;;;;5092114;28;20208;-81
2022/09/01 02:23:59;;;;;;;8.20;7.30;;;;;;;;;;5091922;28;20232;-81
2022/09/01 02:26:30;;;;;;;11.03;7.27;;;;;;;;;;5092529;28;20273;-82
2022/09/01 02:29:00;;;;;;;7.67;6.37;;;;;;;;;;5091670;28;20316;-82
2022/09/01 02:31:30;;;;;;;8.53;6.83;;;;;;;;;;5106671;28;20200;-81
2022/09/01 02:33:57;;;;;;;7.20;6.43;;;;;;;;;;5092088;28;20208;-82
2022/09/01 02:36:25;;;;;;;10.00;6.47;;;;;;;;;;5091800;28;20211;-81
2022/09/01 02:38:53;;;;;;;9.70;6.70;;;;;;;;;;5092574;28;20201;-84
2022/09/01 02:41:21;;;;;;;12.23;6.77;;;;;;;;;;5091643;28;20201;-82
2022/09/01 02:43:49;;;;;;;8.07;6.23;;;;;;;;;;5092539;28;20227;-81
2022/09/01 02:46:16;;;;;;;11.70;7.00;;;;;;;;;;5091892;28;20227;-82
2022/09/01 02:48:44;;;;;;;11.03;6.90;;;;;;;;;;5091891;28;20196;-81
2022/09/01 02:51:14;;;;;;;9.37;6.47;;;;;;;;;;5091860;28;20283;-82
2022/09/01 02:53:41;;;;;;;7.53;6.60;;;;;;;;;;5091398;28;20200;-82
2022/09/01 02:56:13;;;;;;;10.33;6.93;;;;;;;;;;5092154;28;20641;-81
2022/09/01 02:58:45;;;;;;;11.43;6.83;;;;;;;;;;5091366;28;20204;-81
2022/09/01 03:01:15;;;;;;;6.43;5.60;;;;;;;;;;5091579;28;21077;-81
2022/09/01 03:03:42;;;;;;;9.03;6.83;;;;;;;;;;5091742;28;20256;-82
2022/09/01 03:06:11;;;;;;;8.90;7.93;;;;;;;;;;5091291;28;20200;-82
2022/09/01 03:08:38;;;;;;;7.50;6.43;;;;;;;;;;5091328;28;20207;-81
2022/09/01 03:11:09;;;;;;;8.60;7.07;;;;;;;;;;5091143;28;20204;-81
2022/09/01 03:13:37;;;;;;;8.07;7.13;;;;;;;;;;5091551;28;20200;-81
2022/09/01 03:16:03;;;;;;;12.43;7.53;;;;;;;;;;5091478;28;20199;-81
2022/09/01 03:18:30;;;;;;;8.47;6.60;;;;;;;;;;5091428;28;20231;-81
2022/09/01 03:20:57;;;;;;;11.20;7.00;;;;;;;;;;5090821;28;20619;-82
2022/09/01 03:23:26;;;;;;;9.73;7.20;;;;;;;;;;5091510;28;20210;-83
2022/09/01 03:25:54;;;;;;;7.73;6.77;;;;;;;;;;5091372;28;20288;-81
2022/09/01 03:28:20;;;;;;;11.83;6.87;;;;;;;;;;5091363;28;20282;-81
2022/09/01 03:30:49;;;;;;;8.33;7.17;;;;;;;;;;5090712;28;20220;-81
2022/09/01 03:33:17;;;;;;;9.73;7.47;;;;;;;;;;5090840;28;20205;-81
2022/09/01 03:35:44;;;;;;;10.50;7.17;;;;;;;;;;5090193;28;20215;-81
2022/09/01 03:38:14;;;;;;;8.50;6.87;;;;;;;;;;5090830;28;20235;-81
2022/09/01 03:40:43;;;;;;;12.10;6.70;;;;;;;;;;5090951;28;20240;-81
2022/09/01 03:43:11;;;;;;;9.37;7.73;;;;;;;;;;5090640;28;20214;-81
2022/09/01 03:45:38;;;;;;;8.33;5.90;;;;;;;;;;5091198;28;20300;-81
2022/09/01 03:48:07;;;;;;;9.13;7.00;;;;;;;;;;5090304;28;20203;-80
2022/09/01 03:50:39;;;;;;;8.77;5.93;;;;;;;;;;5090611;28;20288;-81
2022/09/01 03:53:07;;;;;;;7.40;6.73;;;;;;;;;;5091055;28;20211;-80
2022/09/01 03:55:37;;;;;;;12.10;6.50;;;;;;;;;;5090546;28;20200;-82
2022/09/01 03:58:07;;;;;;;9.67;6.70;;;;;;;;;;5091079;28;20639;-81
2022/09/01 04:00:36;;;;;;;8.73;6.80;;;;;;;;;;5090337;28;20200;-81
2022/09/01 04:03:07;;;;;;;7.60;6.03;;;;;;;;;;5091175;28;20200;-81
2022/09/01 04:05:36;;;;;;;10.93;6.90;;;;;;;;;;5090439;28;20311;-81
2022/09/01 04:08:05;;;;;;;8.20;6.63;;;;;;;;;;5088662;28;20197;-82
2022/09/01 04:10:33;;;;;;;11.97;7.27;;;;;;;;;;5083029;28;20204;-81
2022/09/01 04:13:00;;;;;;;8.10;7.40;;;;;;;;;;5089961;28;20253;-80
2022/09/01 04:15:31;;;;;;;8.13;7.33;;;;;;;;;;5089905;28;20574;-81
2022/09/01 04:18:09;;;;;;;8.87;6.43;;;;;;;;;;5095727;28;20200;-81
2022/09/01 04:20:47;;;;;;;8.83;6.90;;;;;;;;;;5096563;28;20200;-80
2022/09/01 04:23:25;;;;;;;8.70;7.67;;;;;;;;;;5090006;28;20369;-81
2022/09/01 04:25:53;;;;;;;8.43;7.53;;;;;;;;;;5090325;28;20325;-80
2022/09/01 04:28:23;;;;;;;9.50;7.63;;;;;;;;;;5090206;28;20208;-81
2022/09/01 04:30:57;;;;;;;9.37;7.53;;;;;;;;;;5089935;28;20235;-80
2022/09/01 04:33:24;;;;;;;7.27;6.57;;;;;;;;;;5077351;28;20295;-80
2022/09/01 04:35:53;;;;;;;7.97;7.17;;;;;;;;;;5089873;28;20211;-82
2022/09/01 04:38:20;;;;;;;8.90;6.83;;;;;;;;;;5090124;28;20594;-80
2022/09/01 04:40:48;;;;;;;11.40;6.70;;;;;;;;;;5090134;28;20689;-80
2022/09/01 04:43:15;;;;;;;6.87;5.80;;;;;;;;;;5090050;28;20234;-80
2022/09/01 04:45:43;;;;;;;7.57;6.60;;;;;;;;;;5089851;28;20220;-80
2022/09/01 04:48:11;;;;;;;9.20;6.70;;;;;;;;;;5092239;28;20208;-80
2022/09/01 04:50:40;;;;;;;8.23;6.97;;;;;;;;;;5093803;28;20212;-80
2022/09/01 04:53:10;;;;;;;7.00;6.30;;;;;;;;;;5094990;28;20290;-91
2022/09/01 04:55:42;;;;;;;7.83;7.13;;;;;;;;;;5094998;28;20197;-93
2022/09/01 04:58:09;;;;;;;9.07;6.70;;;;;;;;;;5095650;28;20201;-91
2022/09/01 05:00:36;;;;;;;7.73;6.90;;;;;;;;;;5094944;28;20298;-82
2022/09/01 05:03:04;;;;;;;8.47;7.07;;;;;;;;;;5092114;28;20204;-80
2022/09/01 05:05:41;;;;;;;9.43;7.40;;;;;;;;;;5087726;28;20251;-79
2022/09/01 05:08:13;;;;;;;8.80;6.20;;;;;;;;;;5093687;28;20218;-81
2022/09/01 05:10:43;;;;;;;9.00;6.90;;;;;;;;;;5093275;28;20208;-79
2022/09/01 05:13:11;;;;;;;8.07;6.87;;;;;;;;;;5077934;28;20224;-81
2022/09/01 05:15:45;;;;;;;8.77;7.50;;;;;;;;;;5093428;28;20236;-80
2022/09/01 05:18:14;;;;;;;8.73;6.13;;;;;;;;;;5079600;28;20204;-80
2022/09/01 05:20:43;;;;;;;9.43;6.93;;;;;;;;;;5093530;28;20200;-80
2022/09/01 05:23:12;;;;;;;9.83;7.20;;;;;;;;;;5093453;28;20201;-82
2022/09/01 05:25:44;;;;;;;10.07;7.10;;;;;;;;;;5093343;28;20312;-80
2022/09/01 05:28:12;;;;;;;8.47;6.70;;;;;;;;;;5093110;28;20207;-81
2022/09/01 05:30:41;;;;;;;7.47;6.73;;;;;;;;;;5092084;28;20268;-81
2022/09/01 05:33:10;;;;;;;10.10;8.13;;;;;;;;;;5093176;28;20218;-80
2022/09/01 05:35:39;;;;;;;9.07;7.53;;;;;;;;;;5093139;28;20200;-79
2022/09/01 05:38:14;;;;;;;7.10;6.47;;;;;;;;;;5092689;28;20631;-80
2022/09/01 05:40:42;;;;;;;8.60;6.73;;;;;;;;;;5092498;28;20237;-80
2022/09/01 05:43:11;;;;;;;8.07;5.87;;;;;;;;;;5092744;28;20196;-81
2022/09/01 05:45:41;;;;;;;7.37;6.77;;;;;;;;;;5092446;28;20224;-79
2022/09/01 05:48:09;;;;;;;9.20;6.50;;;;;;;;;;5092767;28;20207;-80
2022/09/01 05:50:39;;;;;;;6.83;6.20;;;;;;;;;;5093522;28;20665;-90
2022/09/01 05:53:09;;;;;;;6.63;5.83;;;;;;;;;;5093565;28;20212;-90
2022/09/01 05:55:38;;;;;;;6.97;6.13;;;;;;;;;;5093782;28;20239;-89
2022/09/01 05:58:06;;;;;;;7.53;6.00;;;;;;;;;;5094087;28;20211;-89
2022/09/01 06:00:37;;;;;;;8.67;5.77;;;;;;;;;;5093364;28;20204;-90
2022/09/01 06:03:07;;;;;;;10.10;5.90;;;;;;;;;;5076341;28;20698;-90
2022/09/01 06:05:35;;;;;;;5.87;5.37;;;;;;;;;;5093710;28;20228;-90
2022/09/01 06:08:02;;;;;;;8.37;6.00;;;;;;;;;;5094097;28;20250;-91
2022/09/01 06:10:29;;;;;;;6.30;5.70;;;;;;;;;;5093783;28;20258;-90
2022/09/01 06:13:00;;;;;;;10.20;6.40;;;;;;;;;;5093739;28;20201;-82
2022/09/01 06:15:28;;;;;;;10.70;5.50;;;;;;;;;;5092389;28;20197;-83
2022/09/01 06:17:55;;;;;;;8.47;5.80;;;;;;;;;;5089644;28;20287;-83
2022/09/01 06:20:22;;;;;;;8.37;5.63;;;;;;;;;;5091144;28;20677;-82
2022/09/01 06:22:51;;;;;;;6.53;5.80;;;;;;;;;;5092382;28;20201;-83
2022/09/01 06:25:18;;;;;;;8.90;6.17;;;;;;;;;;5091615;28;20232;-81
2022/09/01 06:27:46;;;;;;;9.97;6.63;;;;;;;;;;5091929;28;20213;-81
2022/09/01 06:30:19;;;;;;;8.40;5.70;;;;;;;;;;5092003;28;20733;-81
2022/09/01 06:32:48;;;;;;;10.63;6.70;;;;;;;;;;5091060;28;20265;-82
2022/09/01 06:35:16;;;;;;;7.33;6.53;;;;;;;;;;5091682;28;20200;-82
2022/09/01 06:37:44;;;;;;;11.97;6.63;;;;;;;;;;5077752;28;20295;-81
2022/09/01 06:40:16;;;;;;;11.03;7.13;;;;;;;;;;5073554;28;20204;-81
2022/09/01 06:42:46;;;;;;;9.10;6.10;;;;;;;;;;5091632;28;20208;-82
2022/09/01 06:45:13;;;;;;;10.80;6.50;;;;;;;;;;5090727;28;20310;-82
2022/09/01 06:47:43;;;;;;;7.13;6.43;;;;;;;;;;5088608;28;20292;-81
2022/09/01 06:50:12;;;;;;;9.60;6.83;;;;;;;;;;5086236;28;20223;-81
2022/09/01 06:52:41;;;;;;;11.90;6.40;;;;;;;;;;5091533;28;20200;-81
2022/09/01 06:55:09;;;;;;;9.37;6.33;;;;;;;;;;5091688;28;20693;-81
2022/09/01 06:57:36;;;;;;;10.67;6.10;;;;;;;;;;5091249;28;20203;-81
2022/09/01 07:00:16;;;;;;;11.80;5.10;;;;;;;;;;5091686;28;20207;-81
2022/09/01 07:02:44;;;;;;;6.87;5.67;;;;;;;;;;5077826;28;20377;-81
2022/09/01 07:05:16;;;;;;;7.13;5.67;;;;;;;;;;5091557;28;20232;-81
2022/09/01 07:07:44;;;;;;;8.67;6.10;;;;;;;;;;5091324;28;20207;-81
2022/09/01 07:10:13;;;;;;;8.17;4.90;;;;;;;;;;5090511;28;20209;-81
2022/09/01 07:12:43;;;;;;;6.87;5.77;;;;;;;;;;5091346;28;20192;-82
2022/09/01 07:15:11;;;;;;;9.57;5.07;;;;;;;;;;5091058;28;20211;-81
2022/09/01 07:17:40;;;;;;;6.03;5.30;;;;;;;;;;5085000;28;20579;-82
2022/09/01 07:20:11;;;;;;;7.53;4.90;;;;;;;;;;5088974;28;20235;-81
2022/09/01 07:22:38;;;;;;;6.50;4.63;;;;;;;;;;5090710;28;20211;-80
2022/09/01 07:25:06;;;;;;;7.63;5.57;;;;;;;;;;5089701;28;20231;-83
2022/09/01 07:27:33;;;;;;;6.47;5.17;;;;;;;;;;5076669;28;20817;-82
2022/09/01 07:30:00;;;;;;;7.27;4.83;;;;;;;;;;5090539;28;20719;-80
2022/09/01 07:32:28;;;;;;;7.57;4.70;;;;;;;;;;5090815;28;20196;-80
2022/09/01 07:34:55;;;;;;;7.37;4.70;;;;;;;;;;5090257;28;20212;-82
2022/09/01 07:37:25;;;;;;;6.50;4.70;;;;;;;;;;5089981;28;20204;-82
2022/09/01 07:39:52;;;;;;;7.87;4.87;;;;;;;;;;5089873;28;20686;-81
2022/09/01 07:42:20;;;;;;;7.93;5.57;;;;;;;;;;5090079;28;20215;-81
2022/09/01 07:44:47;;;;;;;7.03;5.07;;;;;;;;;;5083862;28;20196;-81
2022/09/01 07:47:15;;;;;;;5.73;4.90;;;;;;;;;;5090274;28;20209;-80
2022/09/01 07:49:42;;;;;;;8.40;4.47;;;;;;;;;;5088879;28;20212;-81
2022/09/01 07:52:09;;;;;;;7.67;5.13;;;;;;;;;;5087455;28;20212;-81
2022/09/01 07:54:37;;;;;;;10.30;4.95;;;;;;;;;;5079212;28;20215;-82
2022/09/01 07:57:04;;;;;;;7.93;3.97;;;;;;;;;;5090272;28;20204;-82
2022/09/01 07:59:32;;;;;;;6.40;4.63;;;;;;;;;;5090490;28;20211;-81
2022/09/01 08:01:59;;;;;;;6.55;4.38;;;;;;;;;;5090510;28;20211;-81
2022/09/01 08:04:26;;;;;;;10.68;4.15;;;;;;;;;;5089348;28;20192;-81
2022/09/01 08:06:56;;;;;;;4.32;3.90;;;;;;;;;;5085426;28;20756;-82
2022/09/01 08:09:23;;;;;;;9.63;4.68;;;;;;;;;;5083455;28;20211;-81
2022/09/01 08:11:51;;;;;;;10.73;4.97;;;;;;;;;;5090152;28;20207;-82
2022/09/01 08:14:18;;;;;;;10.18;4.70;;;;;;;;;;5088891;28;20215;-81
2022/09/01 08:16:45;;;;;;;6.65;4.03;;;;;;;;;;5088044;28;20634;-83
2022/09/01 08:19:12;;;;;;;9.27;5.60;;;;;;;;;;5071091;28;20215;-81
2022/09/01 08:21:39;;;;;;;8.52;4.60;;;;;;;;;;5054904;28;20690;-82
2022/09/01 08:24:06;;;;;;;8.98;5.00;;;;;;;;;;5094271;28;20253;-82
2022/09/01 08:26:33;;;;;;;10.32;4.90;;;;;;;;;;5094309;28;20728;-82
2022/09/01 08:29:01;;;;;;;7.35;5.00;;;;;;;;;;5094124;28;20650;-81
2022/09/01 08:31:28;;;;;;;6.05;4.82;;;;;;;;;;5093311;28;20585;-79
2022/09/01 08:33:55;;;;;;;7.65;4.70;;;;;;;;;;5093947;28;20204;-78
2022/09/01 08:36:22;;;;;;;9.32;5.15;;;;;;;;;;5093116;28;20215;-79
2022/09/01 08:38:51;;;;;;;11.55;5.15;;;;;;;;;;5093989;28;20203;-78
2022/09/01 08:41:20;;;;;;;8.73;5.07;;;;;;;;;;5079031;28;20594;-81
2022/09/01 08:43:56;;;;;;;8.27;5.10;;;;;;;;;;5093671;28;20207;-81
2022/09/01 08:46:27;;;;;;;12.73;5.38;;;;;;;;;;5093598;28;20797;-80
2022/09/01 08:48:58;;;;;;;9.48;5.30;;;;;;;;;;5094133;28;20664;-80
2022/09/01 08:51:33;;;;;;;9.20;4.93;;;;;;;;;;5092284;28;20211;-82
2022/09/01 08:54:04;;;;;;;5.68;4.70;;;;;;;;;;5093033;28;20203;-80
2022/09/01 08:56:34;;;;;;;7.28;5.55;;;;;;;;;;5093266;28;20211;-80
2022/09/01 08:59:01;;;;;;;4.63;3.97;;;;;;;;;;5093564;28;20200;-80
2022/09/01 09:01:34;;;;;;;8.93;4.85;;;;;;;;;;5093902;28;20574;-80
2022/09/01 09:04:13;;;;;;;8.52;4.32;;;;;;;;;;5093838;28;20208;-81
2022/09/01 09:06:47;;;;;;;10.25;5.13;;;;;;;;;;5092092;28;20664;-80
2022/09/01 09:09:14;;;;;;;10.95;6.00;;;;;;;;;;5093719;28;20200;-80
2022/09/01 09:12:01;;;;;;;11.75;4.75;;;;;;;;;;5093082;28;20200;-80
2022/09/01 09:14:37;;;;;;;7.90;4.32;;;;;;;;;;5093410;28;20212;-80
2022/09/01 09:17:06;;;;;;;11.48;5.85;;;;;;;;;;5092289;28;20204;-81
2022/09/01 09:19:35;;;;;;;9.38;5.03;;;;;;;;;;5092758;28;20744;-86
2022/09/01 09:22:05;;;;;;;10.20;4.65;;;;;;;;;;5078892;28;20197;-82
2022/09/01 09:27:20;;;;;;;8.82;4.80;;;;;;;;;;5066242;28;20310;-82
2022/09/01 09:29:49;;;;;;;11.63;5.13;;;;;;;;;;5091664;28;20726;-82
2022/09/01 09:32:18;;;;;;;9.52;4.43;;;;;;;;;;5073224;28;20669;-82
2022/09/01 09:34:45;;;;;;;8.85;4.57;;;;;;;;;;5089441;28;20279;-83
2022/09/01 09:37:22;;;;;;;11.80;5.60;;;;;;;;;;5091142;28;20196;-82
2022/09/01 09:40:09;;;;;;;7.25;4.75;;;;;;;;;;5092577;28;20193;-81
2022/09/01 09:42:38;;;;;;;12.35;4.85;;;;;;;;;;5074539;28;20203;-81
2022/09/01 09:45:07;;;;;;;7.78;4.75;;;;;;;;;;5093104;28;20204;-82
2022/09/01 09:47:38;;;;;;;7.85;4.88;;;;;;;;;;5074463;28;20679;-82
2022/09/01 09:50:21;;;;;;;6.97;5.22;;;;;;;;;;5092282;28;20201;-83
2022/09/01 09:52:49;;;;;;;10.20;5.22;;;;;;;;;;5085426;28;20204;-82
2022/09/01 09:55:23;;;;;;;13.70;4.65;;;;;;;;;;5068088;28;20227;-82
2022/09/01 09:57:53;;;;;;;9.63;5.03;;;;;;;;;;5092861;28;20674;-82
2022/09/01 10:00:23;;;;;;;7.72;4.88;;;;;;;;;;5092892;28;20679;-82
2022/09/01 10:02:56;;;;;;;17.80;5.22;;;;;;;;;;5092735;28;20204;-81
2022/09/01 10:05:27;;;;;;;10.70;4.85;;;;;;;;;;5092298;28;20204;-81
2022/09/01 10:07:55;;;;;;;8.48;4.65;;;;;;;;;;5092813;28;20201;-82
2022/09/01 10:10:28;;;;;;;7.88;4.70;;;;;;;;;;5092491;28;20633;-82
2022/09/01 10:12:56;;;;;;;9.27;5.10;;;;;;;;;;5091462;28;20287;-82
2022/09/01 10:15:24;;;;;;;5.78;4.13;;;;;;;;;;5091569;28;20227;-82
2022/09/01 10:17:54;;;;;;;6.60;4.45;;;;;;;;;;5091210;28;20208;-82
2022/09/01 10:20:24;;;;;;;9.93;5.70;;;;;;;;;;5091444;28;20205;-82
2022/09/01 10:22:51;;;;;;;8.90;4.75;;;;;;;;;;5090990;28;20235;-82
2022/09/01 10:25:21;;;;;;;12.20;5.18;;;;;;;;;;5091296;28;20594;-81
2022/09/01 10:27:53;;;;;;;8.20;4.88;;;;;;;;;;5092155;28;20700;-80
2022/09/01 10:30:21;;;;;;;6.05;4.88;;;;;;;;;;5088292;28;20291;-81
2022/09/01 10:32:50;;;;;;;8.20;4.85;;;;;;;;;;5085310;28;20200;-81
2022/09/01 10:35:22;;;;;;;10.25;4.40;;;;;;;;;;5091696;28;20200;-80
2022/09/01 10:37:50;;;;;;;8.95;4.80;;;;;;;;;;5091969;28;20200;-80
2022/09/01 10:40:20;;;;;;;7.90;5.25;;;;;;;;;;5091053;28;20208;-80
2022/09/01 10:42:54;;;;;;;11.82;4.85;;;;;;;;;;5091446;28;20274;-81
2022/09/01 10:45:33;;;;;;;9.68;4.43;;;;;;;;;;5091079;28;20196;-79
2022/09/01 10:48:26;;;;;;;14.85;4.90;;;;;;;;;;5085305;28;20203;-80
2022/09/01 10:51:33;;;;;;;6.97;4.60;;;;;;;;;;5090682;28;20196;-79
2022/09/01 10:54:02;;;;;;;6.82;5.00;;;;;;;;;;5087555;28;20207;-81
2022/09/01 10:56:39;;;;;;;7.47;4.22;;;;;;;;;;5091229;28;20204;-80
2022/09/01 10:59:08;;;;;;;6.50;4.57;;;;;;;;;;5091238;28;20777;-81
2022/09/01 11:02:05;;;;;;;12.88;4.90;;;;;;;;;;5091385;28;20200;-80
2022/09/01 11:05:05;;;;;;;9.95;4.38;;;;;;;;;;5078373;28;20744;-80
2022/09/01 11:07:37;;;;;;;8.55;5.35;;;;;;;;;;5087175;28;20224;-80
2022/09/01 11:10:32;;;;;;;8.05;5.70;;;;;;;;;;5090955;28;20695;-82
2022/09/01 11:13:30;;;;;;;11.05;5.20;;;;;;;;;;5044089;28;20590;-80
2022/09/01 11:16:27;;;;;;;11.88;5.00;;;;;;;;;;5086704;28;20204;-80
2022/09/01 11:18:55;;;;;;;7.50;4.07;;;;;;;;;;5075882;28;20707;-80
2022/09/01 11:21:26;;;;;;;6.15;4.28;;;;;;;;;;5087068;28;20629;-81
2022/09/01 11:24:26;;;;;;;7.75;4.45;;;;;;;;;;5091326;28;20622;-81
2022/09/01 11:26:54;;;;;;;8.93;4.45;;;;;;;;;;5090239;28;20223;-80
2022/09/01 11:29:52;;;;;;;9.55;4.90;;;;;;;;;;5089921;28;20220;-81
2022/09/01 11:32:19;;;;;;;7.88;4.63;;;;;;;;;;5078904;28;20208;-81
2022/09/01 11:34:48;;;;;;;8.05;4.88;;;;;;;;;;5091203;28;20197;-81
2022/09/01 11:37:16;;;;;;;7.53;4.80;;;;;;;;;;5103168;28;20200;-81
2022/09/01 11:39:48;;;;;;;7.03;5.10;;;;;;;;;;5089662;28;20633;-81
2022/09/01 11:42:20;;;;;;;13.32;4.97;;;;;;;;;;5058651;28;20591;-84
2022/09/01 11:44:51;;;;;;;9.68;4.95;;;;;;;;;;5106321;28;20216;-83
2022/09/01 11:47:20;;;;;;;9.30;4.70;;;;;;;;;;5090709;28;20243;-84
2022/09/01 11:49:50;;;;;;;17.35;4.68;;;;;;;;;;5072698;28;20208;-83
2022/09/01 11:52:18;;;;;;;9.27;4.70;;;;;;;;;;5089682;28;20208;-82
2022/09/01 11:54:46;;;;;;;10.05;4.78;;;;;;;;;;5090303;28;20216;-81
2022/09/01 11:57:30;;;;;;;8.18;5.22;;;;;;;;;;5089266;28;20283;-82
2022/09/01 11:59:58;;;;;;;7.75;4.35;;;;;;;;;;5090405;28;20605;-82
2022/09/01 12:02:28;;;;;;;9.60;4.72;;;;;;;;;;5090017;28;20200;-85
2022/09/01 12:04:56;;;;;;;6.18;4.68;;;;;;;;;;5090002;28;20208;-82
2022/09/01 12:07:33;;;;;;;7.30;4.43;;;;;;;;;;5090422;28;20610;-82
2022/09/01 12:10:00;;;;;;;7.35;4.45;;;;;;;;;;5090462;28;20210;-83
2022/09/01 12:12:38;;;;;;;8.00;4.57;;;;;;;;;;5071716;28;20211;-82
2022/09/01 12:15:09;;;;;;;11.32;4.82;;;;;;;;;;5090176;28;20199;-82
2022/09/01 12:17:36;;;;;;;4.90;4.15;;;;;;;;;;5090083;28;20204;-82
2022/09/01 12:20:28;;;;;;;8.25;4.15;;;;;;;;;;5089723;28;20628;-81
2022/09/01 12:22:55;;;;;;;8.50;4.60;;;;;;;;;;5089665;28;20261;-81
2022/09/01 12:25:24;;;;;;;11.00;4.35;;;;;;;;;;5089979;28;20224;-81
2022/09/01 12:27:53;;;;;;;6.78;4.32;;;;;;;;;;5090168;28;20216;-83
2022/09/01 12:30:21;;;;;;;7.88;4.88;;;;;;;;;;5089278;28;20315;-81
2022/09/01 12:32:48;;;;;;;7.70;4.25;;;;;;;;;;5090120;28;20207;-81
2022/09/01 12:35:18;;;;;;;4.18;3.78;;;;;;;;;;5089045;28;20196;-82
2022/09/01 12:37:45;;;;;;;9.23;4.43;;;;;;;;;;5082637;28;20198;-83
2022/09/01 12:40:23;;;;;;;16.10;5.10;;;;;;;;;;5071698;28;20232;-82
2022/09/01 12:42:52;;;;;;;6.30;4.43;;;;;;;;;;5089856;28;20705;-82
2022/09/01 12:45:38;;;;;;;8.20;4.75;;;;;;;;;;5089941;28;20204;-82
2022/09/01 12:48:05;;;;;;;5.47;4.28;;;;;;;;;;5089901;28;20228;-84
2022/09/01 12:50:43;;;;;;;6.30;4.97;;;;;;;;;;5088984;28;20769;-82
2022/09/01 12:53:23;;;;;;;8.38;4.47;;;;;;;;;;5089615;28;20594;-83
2022/09/01 12:56:13;;;;;;;8.63;5.22;;;;;;;;;;5090026;28;20279;-83
2022/09/01 12:58:53;;;;;;;4.63;3.92;;;;;;;;;;5086401;28;20265;-82
2022/09/01 13:01:29;;;;;;;9.73;4.70;;;;;;;;;;5089378;28;20204;-82
2022/09/01 13:04:28;;;;;;;10.02;5.40;;;;;;;;;;5089767;28;20761;-82
2022/09/01 13:07:01;;;;;;;5.57;5.03;;;;;;;;;;5026120;28;20317;-83
2022/09/01 13:09:28;;;;;;;10.07;4.60;;;;;;;;;;5081508;28;20207;-82
2022/09/01 13:12:11;;;;;;;7.50;4.82;;;;;;;;;;5092928;28;20212;-82
2022/09/01 13:14:39;;;;;;;12.55;5.22;;;;;;;;;;5079944;28;20204;-82
2022/09/01 13:17:05;;;;;;;6.55;5.30;;;;;;;;;;5093220;28;20265;-84
2022/09/01 13:19:32;;;;;;;11.18;5.60;;;;;;;;;;5093417;28;20621;-82
2022/09/01 13:21:59;;;;;;;5.22;4.55;;;;;;;;;;5093660;28;20208;-82
2022/09/01 13:24:26;;;;;;;7.25;5.10;;;;;;;;;;5093508;28;20204;-82
2022/09/01 13:26:56;;;;;;;8.68;4.85;;;;;;;;;;5093508;28;20216;-83
2022/09/01 13:29:24;;;;;;;5.65;5.03;;;;;;;;;;5094432;28;20267;-83
2022/09/01 13:31:52;;;;;;;8.32;5.10;;;;;;;;;;5105070;28;20200;-82
2022/09/01 13:34:19;;;;;;;5.90;5.25;;;;;;;;;;5093144;28;20196;-82
2022/09/01 13:36:46;;;;;;;6.28;5.18;;;;;;;;;;5093035;28;20628;-82
2022/09/01 13:39:14;;;;;;;8.00;4.82;;;;;;;;;;5108898;28;20205;-82
2022/09/01 13:41:41;;;;;;;8.45;4.80;;;;;;;;;;5092881;28;20196;-82
2022/09/01 13:44:10;;;;;;;6.07;4.30;;;;;;;;;;5093389;28;20200;-83
2022/09/01 13:46:38;;;;;;;6.90;4.97;;;;;;;;;;5074892;28;20211;-83
2022/09/01 13:49:06;;;;;;;6.45;4.93;;;;;;;;;;5093244;28;20228;-82
2022/09/01 13:51:35;;;;;;;7.90;4.93;;;;;;;;;;5075243;28;20207;-83
2022/09/01 13:54:02;;;;;;;10.07;5.25;;;;;;;;;;5075460;28;20295;-82
2022/09/01 13:56:29;;;;;;;9.20;5.32;;;;;;;;;;5092303;28;20196;-82
2022/09/01 13:58:56;;;;;;;8.27;4.93;;;;;;;;;;5090290;28;20204;-81
2022/09/01 14:01:23;;;;;;;12.65;4.45;;;;;;;;;;5092283;28;20208;-79
2022/09/01 14:03:51;;;;;;;5.50;4.50;;;;;;;;;;5092771;28;20196;-81
2022/09/01 14:06:20;;;;;;;9.35;5.50;;;;;;;;;;5092446;28;20291;-82
2022/09/01 14:08:49;;;;;;;6.25;4.70;;;;;;;;;;5091931;28;20231;-83
2022/09/01 14:11:17;;;;;;;9.05;5.40;;;;;;;;;;5092404;28;20246;-81
2022/09/01 14:13:44;;;;;;;8.02;5.03;;;;;;;;;;5092588;28;20203;-79
2022/09/01 14:16:12;;;;;;;10.70;4.47;;;;;;;;;;5091822;28;20292;-80
2022/09/01 14:18:39;;;;;;;7.47;5.32;;;;;;;;;;5092497;28;20208;-81
2022/09/01 14:21:06;;;;;;;8.77;4.65;;;;;;;;;;5091175;28;20207;-81
2022/09/01 14:23:34;;;;;;;8.80;4.40;;;;;;;;;;5091532;28;20200;-80
2022/09/01 14:26:01;;;;;;;7.15;4.47;;;;;;;;;;5091756;28;20705;-79
2022/09/01 14:28:27;;;;;;;8.45;4.78;;;;;;;;;;5092036;28;20296;-80
2022/09/01 14:30:54;;;;;;;7.25;4.70;;;;;;;;;;5092069;28;20224;-79
2022/09/01 14:33:23;;;;;;;8.65;4.32;;;;;;;;;;5091981;28;20624;-80
2022/09/01 14:35:50;;;;;;;8.15;4.40;;;;;;;;;;5092028;28;20200;-80
2022/09/01 14:38:17;;;;;;;9.25;4.75;;;;;;;;;;5091789;28;20204;-81
2022/09/01 14:40:47;;;;;;;6.63;4.43;;;;;;;;;;5091584;28;20207;-82
2022/09/01 14:43:14;;;;;;;6.38;4.45;;;;;;;;;;5092060;28;20288;-80
2022/09/01 14:45:44;;;;;;;6.88;5.00;;;;;;;;;;5091450;28;20200;-80
2022/09/01 14:48:11;;;;;;;10.30;4.97;;;;;;;;;;5091649;28;20228;-80
2022/09/01 14:50:41;;;;;;;11.38;4.68;;;;;;;;;;5091365;28;20432;-80
2022/09/01 14:53:08;;;;;;;11.07;4.78;;;;;;;;;;5083677;28;20208;-80
2022/09/01 14:55:35;;;;;;;6.93;4.30;;;;;;;;;;5093900;28;20204;-80
2022/09/01 14:58:03;;;;;;;8.57;4.88;;;;;;;;;;5091132;28;20200;-79
2022/09/01 15:00:33;;;;;;;7.90;4.53;;;;;;;;;;5090998;28;20211;-79
2022/09/01 15:03:00;;;;;;;7.45;4.50;;;;;;;;;;5091202;28;20708;-80
2022/09/01 15:05:27;;;;;;;4.97;4.50;;;;;;;;;;5090905;28;20211;-80